createdAt,value
2018-12-05T00:00:35.173Z,2.10
2018-12-05T00:03:03.722Z,2.00
2018-12-05T00:05:31.606Z,1.90
2018-12-05T00:07:59.471Z,1.90
2018-12-05T00:10:27.685Z,1.90
2018-12-05T00:12:55.261Z,1.90
2018-12-05T00:15:23.079Z,2.10
2018-12-05T00:17:50.671Z,2.20
2018-12-05T00:20:18.236Z,2.30
2018-12-05T00:22:45.813Z,2.40
2018-12-05T00:25:13.637Z,2.40
2018-12-05T00:27:45.106Z,2.40
2018-12-05T00:30:12.678Z,2.40
2018-12-05T00:32:41.288Z,2.50
2018-12-05T00:35:10.291Z,2.50
2018-12-05T00:37:37.865Z,2.50
2018-12-05T00:40:05.995Z,2.50
2018-12-05T00:42:33.937Z,2.60
2018-12-05T00:45:01.650Z,2.60
2018-12-05T00:47:29.672Z,2.70
2018-12-05T00:49:57.237Z,2.70
2018-12-05T00:52:26.010Z,2.70
2018-12-05T00:54:53.575Z,2.70
2018-12-05T00:57:25.282Z,2.70
2018-12-05T00:59:52.882Z,2.70
2018-12-05T01:02:20.676Z,2.60
2018-12-05T01:04:48.232Z,2.60
2018-12-05T01:07:20.173Z,2.60
2018-12-05T01:09:47.756Z,2.60
2018-12-05T01:12:15.411Z,2.60
2018-12-05T01:14:43.335Z,2.60
2018-12-05T01:17:10.907Z,2.60
2018-12-05T01:19:38.511Z,2.60
2018-12-05T01:22:06.077Z,2.60
2018-12-05T01:24:33.859Z,2.60
2018-12-05T01:27:02.922Z,2.60
2018-12-05T01:29:31.665Z,2.60
2018-12-05T01:31:59.227Z,2.60
2018-12-05T01:34:26.801Z,2.60
2018-12-05T01:36:54.377Z,2.60
2018-12-05T01:39:21.951Z,2.60
2018-12-05T01:41:50.172Z,2.50
2018-12-05T01:44:18.577Z,2.50
2018-12-05T01:46:46.810Z,2.50
2018-12-05T01:49:14.382Z,2.50
2018-12-05T01:51:41.965Z,2.50
2018-12-05T01:54:09.884Z,2.50
2018-12-05T01:56:37.464Z,2.40
2018-12-05T01:59:05.574Z,2.40
2018-12-05T02:01:33.776Z,2.40
2018-12-05T02:04:02.692Z,2.20
2018-12-05T02:10:58.257Z,2.00
2018-12-05T02:22:21.895Z,1.60
2018-12-05T02:29:33.649Z,1.50
2018-12-05T02:32:01.326Z,1.50
2018-12-05T02:38:57.620Z,1.50
2018-12-05T02:41:25.191Z,1.50
2018-12-05T02:43:52.766Z,1.40
2018-12-05T02:46:20.346Z,1.30
2018-12-05T02:48:47.921Z,1.30
2018-12-05T02:51:15.485Z,1.20
2018-12-05T02:53:43.067Z,1.20
2018-12-05T03:00:38.601Z,1.30
2018-12-05T03:12:03.199Z,1.30
2018-12-05T03:14:30.769Z,1.30
2018-12-05T03:16:58.373Z,1.30
2018-12-05T03:19:26.074Z,1.30
2018-12-05T03:21:53.757Z,1.30
2018-12-05T03:24:21.499Z,1.30
2018-12-05T03:26:49.085Z,1.30
2018-12-05T03:29:16.677Z,1.30
2018-12-05T03:31:44.243Z,1.30
2018-12-05T03:34:11.812Z,1.30
2018-12-05T03:36:39.408Z,1.30
2018-12-05T03:39:08.307Z,1.20
2018-12-05T03:41:37.173Z,1.20
2018-12-05T03:44:04.843Z,1.20
2018-12-05T03:46:33.117Z,1.20
2018-12-05T03:49:00.836Z,1.20
2018-12-05T03:51:28.413Z,1.20
2018-12-05T03:53:57.694Z,1.20
2018-12-05T03:56:25.253Z,1.20
2018-12-05T03:58:53.055Z,1.20
2018-12-05T04:01:20.620Z,1.20
2018-12-05T04:03:48.191Z,1.10
2018-12-05T04:06:16.750Z,1.00
2018-12-05T04:08:45.267Z,0.90
2018-12-05T04:11:12.830Z,0.80
2018-12-05T04:13:40.666Z,0.80
2018-12-05T04:16:08.237Z,0.80
2018-12-05T04:18:35.832Z,0.80
2018-12-05T04:21:03.403Z,0.80
2018-12-05T04:23:31.008Z,0.70
2018-12-05T04:25:58.565Z,0.70
2018-12-05T04:28:26.177Z,0.60
2018-12-05T04:30:53.769Z,0.60
2018-12-05T04:33:21.326Z,0.50
2018-12-05T04:35:48.915Z,0.60
2018-12-05T04:38:16.494Z,0.50
2018-12-05T04:40:44.073Z,0.40
2018-12-05T04:43:11.642Z,0.40
2018-12-05T04:45:40.113Z,0.40
2018-12-05T04:48:08.412Z,0.40
2018-12-05T04:50:36.066Z,0.40
2018-12-05T04:53:03.644Z,0.40
2018-12-05T04:55:32.063Z,0.40
2018-12-05T04:57:59.636Z,0.30
2018-12-05T05:00:27.222Z,0.20
2018-12-05T05:02:55.012Z,0.20
2018-12-05T05:05:23.326Z,0.10
2018-12-05T05:07:52.716Z,0.00
2018-12-05T05:10:21.832Z,-0.10
2018-12-05T05:12:49.501Z,-0.20
2018-12-05T05:15:17.107Z,-0.20
2018-12-05T05:17:46.945Z,-0.20
2018-12-05T05:20:14.521Z,-0.10
2018-12-05T05:22:42.184Z,-0.10
2018-12-05T05:25:09.794Z,-0.10
2018-12-05T05:27:37.403Z,-0.10
2018-12-05T05:30:05.614Z,-0.10
2018-12-05T05:32:33.875Z,-0.10
2018-12-05T05:35:01.475Z,-0.10
2018-12-05T05:37:29.768Z,-0.20
2018-12-05T05:39:57.350Z,-0.30
2018-12-05T05:42:26.165Z,-0.30
2018-12-05T05:44:53.794Z,-0.30
2018-12-05T05:47:25.031Z,-0.30
2018-12-05T05:49:52.612Z,-0.30
2018-12-05T05:52:20.788Z,-0.30
2018-12-05T05:54:48.371Z,-0.40
2018-12-05T05:57:15.977Z,-0.50
2018-12-05T05:59:43.980Z,-0.50
2018-12-05T06:02:11.553Z,-0.50
2018-12-05T06:04:39.124Z,-0.50
2018-12-05T06:07:08.614Z,-0.50
2018-12-05T06:09:36.191Z,-0.50
2018-12-05T06:12:03.791Z,-0.50
2018-12-05T06:14:31.423Z,-0.50
2018-12-05T06:16:59.266Z,-0.50
2018-12-05T06:19:26.869Z,-0.50
2018-12-05T06:21:54.463Z,-0.50
2018-12-05T06:24:22.100Z,-0.50
2018-12-05T06:26:49.710Z,-0.50
2018-12-05T06:29:17.295Z,-0.50
2018-12-05T06:31:45.449Z,-0.50
2018-12-05T06:34:14.598Z,-0.50
2018-12-05T06:36:42.182Z,-0.50
2018-12-05T06:39:09.750Z,-0.50
2018-12-05T06:41:37.607Z,-0.50
2018-12-05T06:44:05.350Z,-0.60
2018-12-05T06:46:32.958Z,-0.60
2018-12-05T06:49:00.562Z,-0.70
2018-12-05T06:51:28.795Z,-0.70
2018-12-05T06:53:56.373Z,-0.70
2018-12-05T06:56:24.909Z,-0.70
2018-12-05T06:58:52.493Z,-0.70
2018-12-05T07:01:20.121Z,-0.80
2018-12-05T07:03:48.506Z,-0.80
2018-12-05T07:06:16.125Z,-0.80
2018-12-05T07:08:44.287Z,-0.80
2018-12-05T07:11:16.229Z,-0.70
2018-12-05T07:13:45.752Z,-0.70
2018-12-05T07:16:16.522Z,-0.70
2018-12-05T07:18:46.796Z,-0.70
2018-12-05T07:21:14.621Z,-0.80
2018-12-05T07:23:42.695Z,-0.80
2018-12-05T07:26:10.438Z,-0.80
2018-12-05T07:28:38.632Z,-0.80
2018-12-05T07:31:06.277Z,-0.80
2018-12-05T07:33:34.710Z,-0.70
2018-12-05T07:36:02.380Z,-0.80
2018-12-05T07:38:37.717Z,-0.70
2018-12-05T07:41:09.773Z,-0.70
2018-12-05T07:43:38.155Z,-0.60
2018-12-05T07:46:06.713Z,-0.60
2018-12-05T07:48:36.605Z,-0.60
2018-12-05T07:51:04.646Z,-0.60
2018-12-05T07:53:32.211Z,-0.60
2018-12-05T07:55:59.783Z,-0.60
2018-12-05T07:58:27.382Z,-0.60
2018-12-05T08:00:55.148Z,-0.60
2018-12-05T08:03:22.817Z,-0.60
2018-12-05T08:05:50.402Z,-0.60
2018-12-05T08:08:18.848Z,-0.50
2018-12-05T08:10:47.422Z,-0.50
2018-12-05T08:13:15.115Z,-0.40
2018-12-05T08:15:42.750Z,-0.30
2018-12-05T08:18:10.332Z,-0.20
2018-12-05T08:20:37.918Z,-0.10
2018-12-05T08:23:05.507Z,-0.10
2018-12-05T08:25:36.500Z,0.00
2018-12-05T08:28:04.133Z,0.10
2018-12-05T08:30:34.359Z,0.20
2018-12-05T08:33:02.735Z,0.30
2018-12-05T08:35:31.293Z,0.30
2018-12-05T08:38:00.449Z,0.40
2018-12-05T08:40:28.239Z,0.40
2018-12-05T08:42:56.608Z,0.50
2018-12-05T08:45:24.210Z,0.60
2018-12-05T08:47:51.845Z,0.70
2018-12-05T08:50:19.432Z,0.70
2018-12-05T08:52:47.832Z,0.80
2018-12-05T08:55:15.971Z,0.90
2018-12-05T08:57:43.614Z,1.00
2018-12-05T09:00:11.270Z,1.10
2018-12-05T09:02:39.785Z,1.20
2018-12-05T09:05:07.570Z,1.40
2018-12-05T09:07:35.212Z,1.60
2018-12-05T09:10:02.901Z,1.70
2018-12-05T09:12:30.837Z,1.80
2018-12-05T09:15:01.666Z,2.00
2018-12-05T09:17:29.299Z,2.20
2018-12-05T09:19:57.833Z,2.50
2018-12-05T09:22:25.984Z,2.80
2018-12-05T09:24:54.471Z,3.20
2018-12-05T09:27:22.237Z,3.40
2018-12-05T09:29:49.841Z,3.80
2018-12-05T09:32:17.417Z,4.00
2018-12-05T09:34:45.935Z,4.40
2018-12-05T09:37:13.497Z,4.70
2018-12-05T09:39:41.783Z,5.20
2018-12-05T09:42:10.531Z,5.90
2018-12-05T09:44:39.361Z,6.70
2018-12-05T09:47:07.370Z,7.10
2018-12-05T09:49:35.089Z,7.60
2018-12-05T09:52:02.953Z,8.30
2018-12-05T09:54:30.551Z,9.00
2018-12-05T09:56:58.835Z,9.50
2018-12-05T09:59:27.668Z,9.80
2018-12-05T10:01:56.532Z,9.80
2018-12-05T10:04:24.985Z,9.60
2018-12-05T10:06:52.745Z,9.40
2018-12-05T10:09:22.622Z,9.00
2018-12-05T10:11:50.833Z,8.60
2018-12-05T10:14:18.426Z,7.80
2018-12-05T10:16:47.413Z,7.30
2018-12-05T10:19:15.175Z,7.20
2018-12-05T10:21:44.736Z,7.40
2018-12-05T10:24:12.305Z,7.50
2018-12-05T10:29:14.436Z,6.90
2018-12-05T10:31:46.347Z,6.90
2018-12-05T10:34:14.777Z,6.30
2018-12-05T10:36:43.143Z,5.80
2018-12-05T10:39:11.030Z,5.90
2018-12-05T10:41:52.035Z,6.10
2018-12-05T10:44:19.727Z,6.40
2018-12-05T10:46:47.335Z,6.00
2018-12-05T10:49:15.076Z,5.70
2018-12-05T10:51:42.702Z,5.30
2018-12-05T10:54:11.213Z,5.00
2018-12-05T10:56:39.325Z,4.80
2018-12-05T10:59:07.132Z,4.70
2018-12-05T11:01:41.288Z,4.60
2018-12-05T11:04:14.887Z,4.70
2018-12-05T11:06:49.393Z,4.60
2018-12-05T11:09:22.608Z,4.70
2018-12-05T11:15:00.239Z,4.90
2018-12-05T11:17:46.664Z,5.00
2018-12-05T11:20:20.002Z,5.10
2018-12-05T11:22:53.330Z,5.10
2018-12-05T11:25:21.695Z,5.10
2018-12-05T11:27:49.270Z,5.20
2018-12-05T11:30:17.093Z,5.10
2018-12-05T11:32:46.343Z,5.30
2018-12-05T11:35:15.273Z,5.20
2018-12-05T11:37:46.425Z,5.10
2018-12-05T11:40:16.738Z,5.20
2018-12-05T11:42:44.306Z,5.30
2018-12-05T11:45:13.157Z,5.50
2018-12-05T11:47:42.481Z,5.40
2018-12-05T11:50:10.087Z,5.40
2018-12-05T11:52:37.694Z,5.30
2018-12-05T11:55:06.036Z,5.00
2018-12-05T11:57:36.339Z,5.00
2018-12-05T12:00:06.763Z,4.90
2018-12-05T12:02:35.019Z,4.80
2018-12-05T12:05:05.000Z,4.70
2018-12-05T12:07:33.510Z,4.60
2018-12-05T12:10:02.147Z,4.60
2018-12-05T12:12:35.326Z,4.50
2018-12-05T12:15:03.756Z,4.40
2018-12-05T12:17:33.000Z,4.50
2018-12-05T12:20:01.364Z,4.60
2018-12-05T12:22:28.958Z,4.60
2018-12-05T12:24:56.842Z,4.70
2018-12-05T12:27:25.243Z,4.80
2018-12-05T12:29:53.778Z,4.90
2018-12-05T12:32:21.458Z,4.90
2018-12-05T12:34:51.800Z,5.00
2018-12-05T12:37:19.555Z,4.90
2018-12-05T12:39:47.181Z,4.90
2018-12-05T12:42:15.720Z,4.90
2018-12-05T12:44:44.414Z,4.80
2018-12-05T12:47:12.579Z,4.80
2018-12-05T12:49:40.708Z,4.80
2018-12-05T12:52:08.274Z,4.80
2018-12-05T12:54:36.249Z,4.80
2018-12-05T12:57:07.259Z,4.90
2018-12-05T12:59:34.846Z,4.90
2018-12-05T13:02:02.702Z,4.70
2018-12-05T13:04:30.307Z,4.70
2018-12-05T13:06:58.141Z,4.50
2018-12-05T13:09:26.702Z,4.50
2018-12-05T13:11:54.300Z,4.40
2018-12-05T13:14:22.147Z,4.40
2018-12-05T13:16:50.473Z,4.30
2018-12-05T13:19:18.565Z,4.30
2018-12-05T13:21:47.695Z,4.30
2018-12-05T13:24:15.292Z,4.20
2018-12-05T13:26:46.123Z,4.10
2018-12-05T13:29:15.071Z,4.10
2018-12-05T13:31:43.100Z,4.20
2018-12-05T13:34:11.155Z,4.20
2018-12-05T13:36:41.111Z,4.20
2018-12-05T13:39:16.232Z,4.20
2018-12-05T13:41:44.085Z,4.20
2018-12-05T13:44:13.909Z,4.20
2018-12-05T13:46:41.508Z,4.20
2018-12-05T13:49:10.181Z,4.20
2018-12-05T13:51:39.633Z,4.10
2018-12-05T13:54:07.215Z,4.10
2018-12-05T13:56:36.169Z,4.10
2018-12-05T13:59:04.706Z,4.10
2018-12-05T14:01:32.300Z,4.20
2018-12-05T14:04:01.385Z,4.20
2018-12-05T14:06:29.152Z,4.20
2018-12-05T14:08:57.663Z,4.20
2018-12-05T14:11:25.254Z,4.20
2018-12-05T14:13:55.494Z,4.10
2018-12-05T14:16:24.280Z,4.10
2018-12-05T14:18:52.740Z,4.10
2018-12-05T14:21:20.544Z,4.10
2018-12-05T14:23:49.853Z,4.10
2018-12-05T14:26:17.706Z,4.00
2018-12-05T14:28:45.282Z,4.00
2018-12-05T14:31:15.097Z,3.90
2018-12-05T14:33:45.967Z,3.90
2018-12-05T14:36:13.816Z,3.90
2018-12-05T14:38:43.180Z,3.90
2018-12-05T14:41:10.787Z,3.90
2018-12-05T14:43:41.049Z,3.90
2018-12-05T14:46:09.707Z,3.80
2018-12-05T14:48:37.310Z,3.80
2018-12-05T14:51:08.253Z,3.70
2018-12-05T14:53:35.839Z,3.70
2018-12-05T14:56:07.148Z,3.60
2018-12-05T14:58:36.680Z,3.60
2018-12-05T15:01:05.429Z,3.60
2018-12-05T15:03:33.768Z,3.50
2018-12-05T15:06:01.380Z,3.50
2018-12-05T15:08:33.153Z,3.40
2018-12-05T15:11:03.548Z,3.40
2018-12-05T15:13:31.347Z,3.30
2018-12-05T15:16:00.176Z,3.30
2018-12-05T15:18:28.814Z,3.30
2018-12-05T15:20:56.601Z,3.30
2018-12-05T15:23:24.230Z,3.30
2018-12-05T15:25:51.829Z,3.20
2018-12-05T15:28:19.495Z,3.20
2018-12-05T15:30:47.110Z,3.20
2018-12-05T15:33:14.870Z,3.10
2018-12-05T15:35:43.713Z,3.10
2018-12-05T15:38:11.330Z,3.10
2018-12-05T15:40:39.217Z,3.10
2018-12-05T15:43:07.075Z,3.00
2018-12-05T15:45:37.223Z,3.00
2018-12-05T15:48:04.827Z,3.00
2018-12-05T15:50:35.460Z,3.00
2018-12-05T15:53:03.958Z,3.00
2018-12-05T15:55:32.346Z,3.00
2018-12-05T15:58:00.259Z,3.00
2018-12-05T16:00:28.273Z,3.00
2018-12-05T16:02:56.738Z,3.00
2018-12-05T16:05:24.360Z,3.00
2018-12-05T16:07:52.084Z,3.00
2018-12-05T16:10:20.425Z,3.00
2018-12-05T16:12:48.202Z,3.00
2018-12-05T16:15:18.225Z,3.00
2018-12-05T16:17:49.063Z,3.10
2018-12-05T16:20:17.908Z,3.10
2018-12-05T16:22:46.533Z,3.10
2018-12-05T16:25:16.389Z,3.10
2018-12-05T16:27:52.603Z,3.10
2018-12-05T16:30:20.213Z,3.10
2018-12-05T16:32:58.626Z,3.10
2018-12-05T16:35:30.789Z,3.10
2018-12-05T16:37:58.526Z,3.10
2018-12-05T16:40:26.133Z,3.10
2018-12-05T16:42:56.507Z,3.10
2018-12-05T16:45:25.309Z,3.10
2018-12-05T16:47:53.498Z,3.10
2018-12-05T16:50:21.443Z,3.10
2018-12-05T16:52:49.159Z,3.10
2018-12-05T16:55:17.078Z,3.10
2018-12-05T16:57:44.677Z,3.10
2018-12-05T17:00:12.368Z,3.10
2018-12-05T17:02:51.209Z,3.10
2018-12-05T17:05:23.046Z,3.00
2018-12-05T17:07:50.905Z,3.00
2018-12-05T17:10:20.328Z,3.00
2018-12-05T17:12:48.392Z,3.00
2018-12-05T17:15:19.681Z,3.00
2018-12-05T17:17:51.592Z,3.10
2018-12-05T17:20:19.280Z,3.10
2018-12-05T17:22:48.418Z,3.10
2018-12-05T17:25:17.552Z,3.10
2018-12-05T17:27:46.686Z,3.10
2018-12-05T17:30:14.285Z,3.10
2018-12-05T17:32:46.519Z,3.10
2018-12-05T17:35:14.212Z,3.10
2018-12-05T17:37:51.615Z,3.10
2018-12-05T17:40:19.688Z,3.10
2018-12-05T17:42:51.438Z,3.10
2018-12-05T17:45:19.019Z,3.10
2018-12-05T17:47:47.670Z,3.10
2018-12-05T17:50:15.246Z,3.10
2018-12-05T17:52:53.392Z,3.10
2018-12-05T17:55:24.412Z,3.20
2018-12-05T17:57:52.173Z,3.20
2018-12-05T18:00:30.231Z,3.10
2018-12-05T18:02:58.148Z,3.10
2018-12-05T18:05:27.663Z,3.10
2018-12-05T18:07:55.273Z,3.10
2018-12-05T18:10:26.625Z,3.10
2018-12-05T18:12:54.203Z,3.20
2018-12-05T18:15:21.873Z,3.10
2018-12-05T18:17:51.399Z,3.10
2018-12-05T18:20:20.568Z,3.20
2018-12-05T18:22:55.110Z,3.20
2018-12-05T18:25:26.534Z,3.20
2018-12-05T18:27:54.229Z,3.20
2018-12-05T18:30:22.978Z,3.20
2018-12-05T18:32:50.698Z,3.20
2018-12-05T18:35:18.309Z,3.20
2018-12-05T18:37:47.950Z,3.20
2018-12-05T18:40:16.930Z,3.20
2018-12-05T18:42:45.508Z,3.20
2018-12-05T18:45:15.203Z,3.20
2018-12-05T18:47:49.901Z,3.20
2018-12-05T18:50:17.665Z,3.20
2018-12-05T18:52:46.495Z,3.30
2018-12-05T18:55:16.181Z,3.30
2018-12-05T18:57:46.222Z,3.30
2018-12-05T19:00:14.949Z,3.30
2018-12-05T19:02:44.104Z,3.30
2018-12-05T19:05:12.082Z,3.30
2018-12-05T19:07:40.627Z,3.30
2018-12-05T19:10:08.275Z,3.40
2018-12-05T19:12:35.865Z,3.30
2018-12-05T19:15:04.887Z,3.40
2018-12-05T19:17:32.720Z,3.40
2018-12-05T19:20:00.324Z,3.50
2018-12-05T19:22:29.595Z,3.50
2018-12-05T19:25:00.965Z,3.50
2018-12-05T19:27:42.231Z,3.50
2018-12-05T19:30:11.172Z,3.50
2018-12-05T19:32:38.768Z,3.50
2018-12-05T19:35:09.695Z,3.60
2018-12-05T19:37:37.285Z,3.60
2018-12-05T19:40:06.752Z,3.60
2018-12-05T19:42:35.414Z,3.70
2018-12-05T19:45:04.473Z,3.80
2018-12-05T19:47:33.156Z,3.80
2018-12-05T19:50:00.972Z,3.90
2018-12-05T19:52:40.358Z,3.90
2018-12-05T19:55:09.659Z,3.90
2018-12-05T19:57:38.321Z,3.90
2018-12-05T20:00:10.978Z,3.90
2018-12-05T20:02:39.743Z,3.90
2018-12-05T20:05:07.920Z,3.90
2018-12-05T20:07:36.340Z,3.90
2018-12-05T20:10:05.548Z,3.90
2018-12-05T20:12:34.180Z,3.90
2018-12-05T20:15:01.765Z,3.90
2018-12-05T20:17:29.337Z,3.80
2018-12-05T20:19:57.015Z,3.80
2018-12-05T20:22:25.461Z,3.80
2018-12-05T20:24:53.221Z,3.80
2018-12-05T20:27:23.192Z,3.90
2018-12-05T20:29:51.509Z,3.80
2018-12-05T20:32:19.088Z,3.80
2018-12-05T20:34:48.133Z,3.80
2018-12-05T20:37:15.933Z,3.80
2018-12-05T20:39:43.707Z,3.90
2018-12-05T20:42:11.266Z,3.90
2018-12-05T20:44:40.262Z,3.90
2018-12-05T20:47:08.169Z,3.90
2018-12-05T20:49:35.850Z,3.80
2018-12-05T20:52:04.279Z,3.80
2018-12-05T20:54:33.995Z,3.70
2018-12-05T20:57:02.141Z,3.70
2018-12-05T20:59:30.238Z,3.70
2018-12-05T21:02:01.360Z,3.70
2018-12-05T21:04:30.263Z,3.60
2018-12-05T21:07:05.261Z,3.60
2018-12-05T21:09:33.071Z,3.60
2018-12-05T21:12:01.371Z,3.50
2018-12-05T21:14:29.024Z,3.50
2018-12-05T21:16:56.725Z,3.60
2018-12-05T21:19:25.580Z,3.50
2018-12-05T21:21:53.668Z,3.60
2018-12-05T21:24:23.788Z,3.60
2018-12-05T21:26:51.468Z,3.60
2018-12-05T21:29:19.550Z,3.60
2018-12-05T21:31:47.137Z,3.50
2018-12-05T21:34:16.295Z,3.60
2018-12-05T21:36:44.565Z,3.60
2018-12-05T21:39:14.084Z,3.50
2018-12-05T21:41:41.748Z,3.60
2018-12-05T21:44:10.200Z,3.60
2018-12-05T21:46:40.479Z,3.60
2018-12-05T21:49:10.045Z,3.60
2018-12-05T21:51:42.182Z,3.60
2018-12-05T21:54:10.403Z,3.60
2018-12-05T21:56:38.965Z,3.60
2018-12-05T21:59:06.600Z,3.70
2018-12-05T22:01:37.633Z,3.60
2018-12-05T22:04:06.361Z,3.60
2018-12-05T22:06:35.375Z,3.60
2018-12-05T22:09:06.143Z,3.60
2018-12-05T22:11:34.680Z,3.70
2018-12-05T22:14:03.321Z,3.70
2018-12-05T22:16:32.341Z,3.70
2018-12-05T22:19:01.672Z,3.70
2018-12-05T22:21:30.157Z,3.80
2018-12-05T22:23:57.859Z,3.80
2018-12-05T22:26:25.435Z,3.80
2018-12-05T22:28:58.194Z,3.80
2018-12-05T22:31:26.101Z,3.80
2018-12-05T22:33:54.740Z,3.90
2018-12-05T22:36:23.205Z,3.90
2018-12-05T22:38:51.154Z,3.80
2018-12-05T22:41:18.730Z,3.80
2018-12-05T22:43:46.317Z,3.70
2018-12-05T22:46:14.094Z,3.70
2018-12-05T22:48:41.659Z,3.70
2018-12-05T22:51:11.017Z,3.70
2018-12-05T22:53:38.597Z,3.70
2018-12-05T22:56:06.187Z,3.70
2018-12-05T22:58:33.996Z,3.70
2018-12-05T23:01:01.664Z,3.70
2018-12-05T23:03:30.315Z,3.70
2018-12-05T23:05:59.461Z,3.70
2018-12-05T23:08:28.367Z,3.60
2018-12-05T23:10:56.692Z,3.50
2018-12-05T23:13:24.256Z,3.40
2018-12-05T23:15:52.014Z,3.40
2018-12-05T23:18:19.805Z,3.40
2018-12-05T23:20:48.701Z,3.40
2018-12-05T23:23:16.439Z,3.40
2018-12-05T23:25:46.977Z,3.40
2018-12-05T23:28:14.542Z,3.40
2018-12-05T23:30:42.119Z,3.40
2018-12-05T23:33:13.095Z,3.40
2018-12-05T23:35:40.948Z,3.40
2018-12-05T23:38:08.515Z,3.40
2018-12-05T23:40:36.100Z,3.40
2018-12-05T23:43:03.699Z,3.50
2018-12-05T23:45:31.279Z,3.60
2018-12-05T23:47:59.170Z,3.70
2018-12-05T23:50:27.068Z,3.70
2018-12-05T23:52:55.693Z,3.80
2018-12-05T23:55:23.248Z,3.80
2018-12-05T23:57:50.885Z,3.80
